createdAt,value
2022-09-13T00:02:10.554Z,2.54
2022-09-13T00:04:37.160Z,2.72
2022-09-13T00:07:03.751Z,2.54
2022-09-13T00:09:30.289Z,2.63
2022-09-13T00:11:56.858Z,2.37
2022-09-13T00:14:23.366Z,2.41
2022-09-13T00:16:49.947Z,2.43
2022-09-13T00:19:16.536Z,2.55
2022-09-13T00:21:43.158Z,2.62
2022-09-13T00:24:09.708Z,2.47
2022-09-13T00:26:36.245Z,2.47
2022-09-13T00:29:02.731Z,2.43
2022-09-13T00:31:29.374Z,2.41
2022-09-13T00:33:58.247Z,2.30
2022-09-13T00:36:24.797Z,2.79
2022-09-13T00:38:51.297Z,2.29
2022-09-13T00:41:20.876Z,2.21
2022-09-13T00:43:53.565Z,2.09
2022-09-13T00:46:44.038Z,2.33
2022-09-13T00:49:28.056Z,2.50
2022-09-13T00:52:08.107Z,2.19
2022-09-13T00:54:49.471Z,2.34
2022-09-13T00:57:21.892Z,2.28
2022-09-13T01:00:16.481Z,2.30
2022-09-13T01:02:53.655Z,2.24
2022-09-13T01:05:26.761Z,2.15
2022-09-13T01:07:55.763Z,2.30
2022-09-13T01:10:22.362Z,2.29
2022-09-13T01:13:18.246Z,2.51
2022-09-13T01:15:44.975Z,2.37
2022-09-13T01:18:12.448Z,2.42
2022-09-13T01:21:16.065Z,2.29
2022-09-13T01:24:31.116Z,2.23
2022-09-13T01:27:28.522Z,2.21
2022-09-13T01:30:36.160Z,2.25
2022-09-13T01:33:50.524Z,2.40
2022-09-13T01:36:39.875Z,2.20
2022-09-13T01:39:13.547Z,2.26
2022-09-13T01:42:11.841Z,2.24
2022-09-13T01:44:56.711Z,2.05
2022-09-13T01:47:52.774Z,2.32
2022-09-13T01:50:43.546Z,2.02
2022-09-13T01:53:35.528Z,2.20
2022-09-13T01:56:10.589Z,2.02
2022-09-13T01:58:47.725Z,2.23
2022-09-13T02:01:52.333Z,2.39
2022-09-13T02:04:27.194Z,2.37
2022-09-13T02:07:13.677Z,2.37
2022-09-13T02:09:54.922Z,2.22
2022-09-13T02:12:27.631Z,2.46
2022-09-13T02:15:06.964Z,2.39
2022-09-13T02:17:40.917Z,2.43
2022-09-13T02:20:41.662Z,2.61
2022-09-13T02:23:17.153Z,2.57
2022-09-13T02:25:47.918Z,2.39
2022-09-13T02:28:22.336Z,2.53
2022-09-13T02:30:53.500Z,2.47
2022-09-13T02:33:32.889Z,2.45
2022-09-13T02:36:08.642Z,2.45
2022-09-13T02:38:47.276Z,2.49
2022-09-13T02:41:38.767Z,2.49
2022-09-13T02:44:31.413Z,2.61
2022-09-13T02:47:30.036Z,2.53
2022-09-13T02:50:24.671Z,2.69
2022-09-13T02:53:04.383Z,2.56
2022-09-13T02:55:54.628Z,2.52
2022-09-13T02:58:58.794Z,2.24
2022-09-13T03:01:25.720Z,2.16
2022-09-13T03:03:53.463Z,2.33
2022-09-13T03:06:25.000Z,2.33
2022-09-13T03:08:53.437Z,2.38
2022-09-13T03:11:56.811Z,2.22
2022-09-13T03:14:54.130Z,1.98
2022-09-13T03:17:59.486Z,2.25
2022-09-13T03:20:38.077Z,2.42
2022-09-13T03:23:14.290Z,2.27
2022-09-13T03:26:09.488Z,2.31
2022-09-13T03:28:53.519Z,2.10
2022-09-13T03:31:52.676Z,2.17
2022-09-13T03:34:56.949Z,2.17
2022-09-13T03:37:55.271Z,2.14
2022-09-13T03:40:32.874Z,2.33
2022-09-13T03:43:18.051Z,2.18
2022-09-13T03:45:59.941Z,2.11
2022-09-13T03:48:28.798Z,2.06
2022-09-13T03:50:55.513Z,1.96
2022-09-13T03:53:27.082Z,2.09
2022-09-13T03:55:53.664Z,2.03
2022-09-13T03:58:21.706Z,2.17
2022-09-13T04:00:48.983Z,1.80
2022-09-13T04:03:15.669Z,2.08
2022-09-13T04:05:42.333Z,1.90
2022-09-13T04:08:09.045Z,2.01
2022-09-13T04:10:36.788Z,1.83
2022-09-13T04:13:04.115Z,1.80
2022-09-13T04:15:31.071Z,1.80
2022-09-13T04:17:58.083Z,1.93
2022-09-13T04:20:24.707Z,1.97
2022-09-13T04:22:57.323Z,1.71
2022-09-13T04:25:24.215Z,1.87
2022-09-13T04:27:55.095Z,1.85
2022-09-13T04:30:22.223Z,2.09
2022-09-13T04:32:48.787Z,2.06
2022-09-13T04:35:15.399Z,2.21
2022-09-13T04:37:41.902Z,2.09
2022-09-13T04:40:09.395Z,2.08
2022-09-13T04:42:36.100Z,1.99
2022-09-13T04:45:04.443Z,2.05
2022-09-13T04:47:30.974Z,1.84
2022-09-13T04:49:57.608Z,1.89
2022-09-13T04:52:24.140Z,2.10
2022-09-13T04:54:50.683Z,1.92
2022-09-13T04:57:17.182Z,1.93
2022-09-13T04:59:44.061Z,1.94
2022-09-13T05:02:10.737Z,2.13
2022-09-13T05:04:37.262Z,1.95
2022-09-13T05:07:03.833Z,2.01
2022-09-13T05:09:30.400Z,1.97
2022-09-13T05:11:56.908Z,2.07
2022-09-13T05:14:23.400Z,1.89
2022-09-13T05:16:49.880Z,2.08
2022-09-13T05:19:16.461Z,2.23
2022-09-13T05:21:42.924Z,2.26
2022-09-13T05:24:09.619Z,2.31
2022-09-13T05:26:36.404Z,2.22
2022-09-13T05:29:04.395Z,2.49
2022-09-13T05:31:34.877Z,2.43
2022-09-13T05:34:04.904Z,2.32
2022-09-13T05:36:32.103Z,2.34
2022-09-13T05:39:26.073Z,2.34
2022-09-13T05:41:45.490Z,2.58
2022-09-13T05:44:13.523Z,2.43
2022-09-13T05:46:41.023Z,2.41
2022-09-13T05:49:07.607Z,2.02
2022-09-13T05:51:34.126Z,1.98
2022-09-13T05:54:00.696Z,1.96
2022-09-13T05:56:29.667Z,2.20
2022-09-13T05:58:56.416Z,2.37
2022-09-13T06:01:26.647Z,2.44
2022-09-13T06:03:56.179Z,2.68
2022-09-13T06:06:24.257Z,2.44
2022-09-13T06:08:55.926Z,2.45
2022-09-13T06:11:24.218Z,2.48
2022-09-13T06:13:51.140Z,2.26
2022-09-13T06:16:18.012Z,2.32
2022-09-13T06:18:44.840Z,2.02
2022-09-13T06:21:18.729Z,2.36
2022-09-13T06:23:52.303Z,2.59
2022-09-13T06:26:28.484Z,2.58
2022-09-13T06:28:57.535Z,2.61
2022-09-13T06:31:26.467Z,2.46
2022-09-13T06:34:01.481Z,2.32
2022-09-13T06:36:28.313Z,2.13
2022-09-13T06:38:54.859Z,1.98
2022-09-13T06:41:23.703Z,1.99
2022-09-13T06:43:59.261Z,2.16
2022-09-13T06:46:31.608Z,1.98
2022-09-13T06:49:04.905Z,2.20
2022-09-13T06:51:33.975Z,2.32
2022-09-13T06:54:01.730Z,2.35
2022-09-13T06:56:34.358Z,1.62
2022-09-13T06:59:07.094Z,1.38
2022-09-13T07:01:36.661Z,1.24
2022-09-13T07:04:09.313Z,1.26
2022-09-13T07:06:41.890Z,1.46
2022-09-13T07:09:12.136Z,1.44
2022-09-13T07:11:41.489Z,1.45
2022-09-13T07:14:11.785Z,1.48
2022-09-13T07:16:38.367Z,1.83
2022-09-13T07:19:08.012Z,1.80
2022-09-13T07:21:35.522Z,1.47
2022-09-13T07:24:02.068Z,1.57
2022-09-13T07:26:28.544Z,1.66
2022-09-13T07:28:59.102Z,1.82
2022-09-13T07:31:38.468Z,1.64
2022-09-13T07:34:07.810Z,1.51
2022-09-13T07:36:36.123Z,1.72
2022-09-13T07:39:04.104Z,1.87
2022-09-13T07:41:32.806Z,1.99
2022-09-13T07:44:01.652Z,2.67
2022-09-13T07:46:30.090Z,3.59
2022-09-13T07:48:56.894Z,2.41
2022-09-13T07:51:25.989Z,1.79
2022-09-13T07:53:57.514Z,2.00
2022-09-13T07:56:30.474Z,1.77
2022-09-13T07:58:59.967Z,2.02
2022-09-13T08:01:29.069Z,2.60
2022-09-13T08:04:01.185Z,2.38
2022-09-13T08:09:15.039Z,1.72
2022-09-13T08:11:44.245Z,2.21
2022-09-13T08:14:14.132Z,2.24
2022-09-13T08:16:40.597Z,1.98
2022-09-13T08:19:14.605Z,1.71
2022-09-13T08:21:42.523Z,1.91
2022-09-13T08:24:17.642Z,2.43
2022-09-13T08:26:44.787Z,2.68
2022-09-13T08:29:12.748Z,3.10
2022-09-13T08:31:39.460Z,1.96
2022-09-13T08:34:10.091Z,2.24
2022-09-13T08:36:36.546Z,3.20
2022-09-13T08:39:03.108Z,3.77
2022-09-13T08:41:41.739Z,1.85
2022-09-13T08:44:37.174Z,1.98
2022-09-13T08:47:41.309Z,1.65
2022-09-13T08:50:31.007Z,3.20
2022-09-13T08:53:30.150Z,2.21
2022-09-13T08:56:13.798Z,1.43
2022-09-13T08:58:54.912Z,1.33
2022-09-13T09:01:42.217Z,1.84
2022-09-13T09:04:27.207Z,1.83
2022-09-13T09:07:11.517Z,2.49
2022-09-13T09:09:52.857Z,1.46
2022-09-13T09:12:29.122Z,1.37
2022-09-13T09:15:08.530Z,1.80
2022-09-13T09:17:55.637Z,2.47
2022-09-13T09:20:44.241Z,2.13
2022-09-13T09:23:24.915Z,1.72
2022-09-13T09:26:11.236Z,1.80
2022-09-13T09:28:37.674Z,1.63
2022-09-13T09:31:22.497Z,1.73
2022-09-13T09:34:16.125Z,1.92
2022-09-13T09:37:11.596Z,1.80
2022-09-13T09:39:38.599Z,1.85
2022-09-13T09:42:14.660Z,1.51
2022-09-13T09:44:44.927Z,1.78
2022-09-13T09:47:18.151Z,2.38
2022-09-13T09:49:55.160Z,1.86
2022-09-13T09:52:29.575Z,2.02
2022-09-13T09:55:10.802Z,1.89
2022-09-13T09:57:54.534Z,2.38
2022-09-13T10:00:24.297Z,2.93
2022-09-13T10:02:57.005Z,2.00
2022-09-13T10:05:24.268Z,1.91
2022-09-13T10:07:58.208Z,2.42
2022-09-13T10:10:31.154Z,2.14
2022-09-13T10:12:59.194Z,1.97
2022-09-13T10:15:31.413Z,2.07
2022-09-13T10:18:40.363Z,2.03
2022-09-13T10:21:07.429Z,2.10
2022-09-13T10:23:36.232Z,1.80
2022-09-13T10:26:11.523Z,2.49
2022-09-13T10:28:46.775Z,2.16
2022-09-13T10:31:19.045Z,2.55
2022-09-13T10:33:51.167Z,2.66
2022-09-13T10:36:51.651Z,2.24
2022-09-13T10:39:22.248Z,1.82
2022-09-13T10:41:54.779Z,1.89
2022-09-13T10:44:30.022Z,1.51
2022-09-13T10:47:01.431Z,1.71
2022-09-13T10:49:56.014Z,1.98
2022-09-13T10:52:27.067Z,2.22
2022-09-13T10:54:55.440Z,2.17
2022-09-13T10:57:37.222Z,2.05
2022-09-13T11:00:18.999Z,2.03
2022-09-13T11:03:19.457Z,2.21
2022-09-13T11:06:13.759Z,2.28
2022-09-13T11:08:45.806Z,2.06
2022-09-13T11:11:18.070Z,2.06
2022-09-13T11:14:06.395Z,2.35
2022-09-13T11:16:49.707Z,2.55
2022-09-13T11:19:47.716Z,2.65
2022-09-13T11:22:30.710Z,2.84
2022-09-13T11:25:24.427Z,2.03
2022-09-13T11:27:53.862Z,2.12
2022-09-13T11:30:26.470Z,2.20
2022-09-13T11:33:17.526Z,2.17
2022-09-13T11:36:01.929Z,2.42
2022-09-13T11:38:34.624Z,2.22
2022-09-13T11:41:24.296Z,2.37
2022-09-13T11:44:03.845Z,2.25
2022-09-13T11:47:02.482Z,2.48
2022-09-13T11:49:49.759Z,3.58
2022-09-13T11:52:27.756Z,2.90
2022-09-13T11:54:57.207Z,2.38
2022-09-13T11:57:35.903Z,4.15
2022-09-13T12:00:06.769Z,2.40
2022-09-13T12:02:44.685Z,2.80
2022-09-13T12:05:23.482Z,2.51
2022-09-13T12:08:00.772Z,3.15
2022-09-13T12:10:38.933Z,3.20
2022-09-13T12:13:15.136Z,2.76
2022-09-13T12:15:46.281Z,2.44
2022-09-13T12:18:24.849Z,2.24
2022-09-13T12:20:57.307Z,2.27
2022-09-13T12:23:51.617Z,2.03
2022-09-13T12:26:34.466Z,1.91
2022-09-13T12:29:39.630Z,1.95
2022-09-13T12:32:10.158Z,2.00
2022-09-13T12:34:53.591Z,2.22
2022-09-13T12:37:29.036Z,2.40
2022-09-13T12:40:38.388Z,1.76
2022-09-13T12:43:13.659Z,2.17
2022-09-13T12:45:52.284Z,2.10
2022-09-13T12:48:46.167Z,1.66
2022-09-13T12:51:38.146Z,2.34
2022-09-13T12:54:27.210Z,2.02
2022-09-13T12:57:12.494Z,2.22
2022-09-13T13:00:11.949Z,1.83
2022-09-13T13:02:41.812Z,2.21
2022-09-13T13:05:34.005Z,1.92
2022-09-13T13:08:20.699Z,2.06
2022-09-13T13:11:09.614Z,1.74
2022-09-13T13:13:44.607Z,1.77
2022-09-13T13:16:32.524Z,2.38
2022-09-13T13:19:01.983Z,2.24
2022-09-13T13:21:40.164Z,1.94
2022-09-13T13:24:15.420Z,1.98
2022-09-13T13:26:49.589Z,1.88
2022-09-13T13:29:25.917Z,2.10
2022-09-13T13:31:58.381Z,1.60
2022-09-13T13:34:27.787Z,2.13
2022-09-13T13:37:05.720Z,1.90
2022-09-13T13:39:36.581Z,2.22
2022-09-13T13:42:26.915Z,1.64
2022-09-13T13:44:53.319Z,1.84
2022-09-13T13:47:19.690Z,1.85
2022-09-13T13:50:18.287Z,1.95
2022-09-13T13:52:47.414Z,1.92
2022-09-13T13:55:22.884Z,2.23
2022-09-13T13:58:00.182Z,2.24
2022-09-13T14:00:35.290Z,2.26
2022-09-13T14:03:01.905Z,2.02
2022-09-13T14:06:01.088Z,1.79
2022-09-13T14:08:36.779Z,2.06
2022-09-13T14:11:52.623Z,2.24
2022-09-13T14:15:07.321Z,2.10
2022-09-13T14:17:49.651Z,2.14
2022-09-13T14:20:20.576Z,2.28
2022-09-13T14:22:47.874Z,2.32
2022-09-13T14:25:24.033Z,2.10
2022-09-13T14:27:56.661Z,2.33
2022-09-13T14:30:28.224Z,2.16
2022-09-13T14:32:57.112Z,2.34
2022-09-13T14:35:36.524Z,2.20
2022-09-13T14:38:21.535Z,2.53
2022-09-13T14:40:58.274Z,2.41
2022-09-13T14:43:28.160Z,2.57
2022-09-13T14:46:05.729Z,2.60
2022-09-13T14:48:42.444Z,2.79
2022-09-13T14:51:19.896Z,2.73
2022-09-13T14:53:52.226Z,2.62
2022-09-13T14:56:37.354Z,2.49
2022-09-13T14:59:19.374Z,2.56
2022-09-13T15:01:45.891Z,2.35
2022-09-13T15:04:12.542Z,2.51
2022-09-13T15:06:40.586Z,2.75
2022-09-13T15:09:10.028Z,2.97
2022-09-13T15:11:53.276Z,2.65
2022-09-13T15:14:34.478Z,3.50
2022-09-13T15:17:12.839Z,2.91
2022-09-13T15:19:53.292Z,2.53
2022-09-13T15:22:27.678Z,2.91
2022-09-13T15:24:56.818Z,2.90
2022-09-13T15:27:48.290Z,2.92
2022-09-13T15:30:27.791Z,3.04
2022-09-13T15:33:11.188Z,2.76
2022-09-13T15:35:40.865Z,3.31
2022-09-13T15:38:19.384Z,3.10
2022-09-13T15:40:56.800Z,2.85
2022-09-13T15:43:23.542Z,3.27
2022-09-13T15:45:50.324Z,2.85
2022-09-13T15:48:29.928Z,2.80
2022-09-13T15:51:14.177Z,3.10
2022-09-13T15:53:43.880Z,2.94
2022-09-13T15:56:15.651Z,2.85
2022-09-13T15:58:42.096Z,3.09
2022-09-13T16:01:12.028Z,3.23
2022-09-13T16:03:38.675Z,2.96
2022-09-13T16:06:06.479Z,2.63
2022-09-13T16:08:32.943Z,2.81
2022-09-13T16:10:59.409Z,2.76
2022-09-13T16:13:25.870Z,2.72
2022-09-13T16:15:57.087Z,2.63
2022-09-13T16:18:24.230Z,2.64
2022-09-13T16:20:51.449Z,2.99
2022-09-13T16:23:17.976Z,2.91
2022-09-13T16:25:44.772Z,2.82
2022-09-13T16:28:18.712Z,2.75
2022-09-13T16:30:46.242Z,2.86
2022-09-13T16:33:12.755Z,3.03
2022-09-13T16:35:39.531Z,3.36
2022-09-13T16:38:06.035Z,3.51
2022-09-13T16:40:32.597Z,3.43
2022-09-13T16:42:59.213Z,3.27
2022-09-13T16:45:25.729Z,3.04
2022-09-13T16:47:52.175Z,3.38
2022-09-13T16:50:18.758Z,3.34
2022-09-13T16:52:45.302Z,3.10
2022-09-13T16:55:11.752Z,3.23
2022-09-13T16:57:38.265Z,3.41
2022-09-13T17:00:07.178Z,3.92
2022-09-13T17:02:33.810Z,3.70
2022-09-13T17:05:00.618Z,3.70
2022-09-13T17:07:27.085Z,3.75
2022-09-13T17:09:53.544Z,3.52
2022-09-13T17:12:20.019Z,3.54
2022-09-13T17:14:46.548Z,3.70
2022-09-13T17:17:15.307Z,3.71
2022-09-13T17:19:42.668Z,3.51
2022-09-13T17:22:10.785Z,3.85
2022-09-13T17:24:38.547Z,4.15
2022-09-13T17:27:06.018Z,3.86
2022-09-13T17:29:34.911Z,3.35
2022-09-13T17:32:03.881Z,3.27
2022-09-13T17:34:30.365Z,2.90
2022-09-13T17:36:56.823Z,2.50
2022-09-13T17:39:23.369Z,2.47
2022-09-13T17:41:49.831Z,2.55
2022-09-13T17:44:16.284Z,2.92
2022-09-13T17:46:43.107Z,2.77
2022-09-13T17:49:09.632Z,2.66
2022-09-13T17:51:36.365Z,2.68
2022-09-13T17:54:06.289Z,2.56
2022-09-13T17:56:42.293Z,2.86
2022-09-13T17:59:21.046Z,2.57
2022-09-13T18:01:50.359Z,2.76
2022-09-13T18:04:20.055Z,2.87
2022-09-13T18:06:46.705Z,3.08
2022-09-13T18:09:14.628Z,3.17
2022-09-13T18:11:41.757Z,3.50
2022-09-13T18:14:16.478Z,3.83
2022-09-13T18:16:44.019Z,4.12
2022-09-13T18:19:10.887Z,3.93
2022-09-13T18:21:37.535Z,3.94
2022-09-13T18:24:04.083Z,3.91
2022-09-13T18:26:31.316Z,3.99
2022-09-13T18:29:03.289Z,4.01
2022-09-13T18:31:32.384Z,3.77
2022-09-13T18:34:02.181Z,3.57
2022-09-13T18:36:30.652Z,3.69
2022-09-13T18:38:57.771Z,3.74
2022-09-13T18:41:29.734Z,4.07
2022-09-13T18:43:57.489Z,3.80
2022-09-13T18:46:27.833Z,3.86
2022-09-13T18:48:56.352Z,4.60
2022-09-13T18:51:25.960Z,4.35
2022-09-13T18:53:52.912Z,3.49
2022-09-13T18:56:21.408Z,13.78
2022-09-13T18:58:48.048Z,17.25
2022-09-13T19:01:17.497Z,10.64
2022-09-13T19:04:07.521Z,9.68
2022-09-13T19:06:37.753Z,11.75
2022-09-13T19:09:06.151Z,10.36
2022-09-13T19:11:46.456Z,18.78
2022-09-13T19:14:19.637Z,9.97
2022-09-13T19:16:46.924Z,5.77
2022-09-13T19:19:14.328Z,5.65
2022-09-13T19:21:41.055Z,5.65
2022-09-13T19:24:10.067Z,6.23
2022-09-13T19:26:39.953Z,5.33
2022-09-13T19:29:10.426Z,5.52
2022-09-13T19:31:40.050Z,5.53
2022-09-13T19:34:07.293Z,5.52
2022-09-13T19:36:36.849Z,5.81
2022-09-13T19:39:06.081Z,4.70
2022-09-13T19:41:33.345Z,4.95
2022-09-13T19:44:01.812Z,4.78
2022-09-13T19:46:31.687Z,5.37
2022-09-13T19:49:00.285Z,4.51
2022-09-13T19:51:30.043Z,4.46
2022-09-13T19:53:59.164Z,4.55
2022-09-13T19:56:37.811Z,3.90
2022-09-13T19:59:06.186Z,4.58
2022-09-13T20:01:36.461Z,4.66
2022-09-13T20:04:07.118Z,4.97
2022-09-13T20:06:37.027Z,3.69
2022-09-13T20:09:04.236Z,3.59
2022-09-13T20:11:31.957Z,3.63
2022-09-13T20:14:00.562Z,4.02
2022-09-13T20:16:29.889Z,3.65
2022-09-13T20:18:57.767Z,3.33
2022-09-13T20:21:26.352Z,3.59
2022-09-13T20:23:59.629Z,3.23
2022-09-13T20:26:27.524Z,3.54
2022-09-13T20:28:57.794Z,4.16
2022-09-13T20:31:25.036Z,4.30
2022-09-13T20:33:56.868Z,3.32
2022-09-13T20:36:25.358Z,3.13
2022-09-13T20:38:52.547Z,3.24
2022-09-13T20:41:20.568Z,2.76
2022-09-13T20:43:48.136Z,3.92
2022-09-13T20:46:15.677Z,4.60
2022-09-13T20:48:42.479Z,3.14
2022-09-13T20:51:13.218Z,3.10
2022-09-13T20:53:40.788Z,3.34
2022-09-13T20:56:13.537Z,2.59
2022-09-13T20:58:41.684Z,2.73
2022-09-13T21:01:11.720Z,3.04
2022-09-13T21:03:40.858Z,2.69
2022-09-13T21:06:09.024Z,2.70
2022-09-13T21:08:36.075Z,3.66
2022-09-13T21:11:04.154Z,3.61
2022-09-13T21:13:32.913Z,3.74
2022-09-13T21:16:11.563Z,4.42
2022-09-13T21:18:39.272Z,3.42
2022-09-13T21:21:08.095Z,3.40
2022-09-13T21:23:36.419Z,3.25
2022-09-13T21:26:08.871Z,3.63
2022-09-13T21:28:36.819Z,3.30
2022-09-13T21:31:17.145Z,3.26
2022-09-13T21:33:47.313Z,4.39
2022-09-13T21:36:14.186Z,3.42
2022-09-13T21:38:40.643Z,2.99
2022-09-13T21:41:14.498Z,3.25
2022-09-13T21:43:41.714Z,2.99
2022-09-13T21:46:12.824Z,3.08
2022-09-13T21:48:39.472Z,3.14
2022-09-13T21:51:21.044Z,3.28
2022-09-13T21:53:49.748Z,2.89
2022-09-13T21:56:19.219Z,2.83
2022-09-13T21:58:55.628Z,3.35
2022-09-13T22:01:23.534Z,3.09
2022-09-13T22:03:52.017Z,3.30
2022-09-13T22:06:20.404Z,3.00
2022-09-13T22:08:52.390Z,3.46
2022-09-13T22:11:22.866Z,3.22
2022-09-13T22:13:50.384Z,3.53
2022-09-13T22:16:26.843Z,3.21
2022-09-13T22:18:55.919Z,3.38
2022-09-13T22:21:25.415Z,3.13
2022-09-13T22:23:52.017Z,3.14
2022-09-13T22:26:27.694Z,3.01
2022-09-13T22:28:56.605Z,3.28
2022-09-13T22:31:26.945Z,3.16
2022-09-13T22:33:54.255Z,3.09
2022-09-13T22:36:20.765Z,3.15
2022-09-13T22:38:53.033Z,3.15
2022-09-13T22:41:25.379Z,3.26
2022-09-13T22:43:52.300Z,3.26
2022-09-13T22:46:31.752Z,3.00
2022-09-13T22:48:58.767Z,3.05
2022-09-13T22:51:25.862Z,3.09
2022-09-13T22:53:53.773Z,3.05
2022-09-13T22:56:26.452Z,3.21
2022-09-13T22:59:07.749Z,3.07
2022-09-13T23:01:35.374Z,2.88
2022-09-13T23:04:02.634Z,2.93
2022-09-13T23:06:30.303Z,3.13
2022-09-13T23:08:59.655Z,3.22
2022-09-13T23:11:28.984Z,3.34
2022-09-13T23:13:58.669Z,3.06
2022-09-13T23:16:29.607Z,3.28
2022-09-13T23:18:56.411Z,3.40
2022-09-13T23:21:25.813Z,3.25
2022-09-13T23:23:52.927Z,3.30
2022-09-13T23:26:22.137Z,3.53
2022-09-13T23:28:54.035Z,3.59
2022-09-13T23:31:22.910Z,3.39
2022-09-13T23:33:52.790Z,3.26
2022-09-13T23:36:23.426Z,3.23
2022-09-13T23:38:52.931Z,3.27
2022-09-13T23:41:20.401Z,3.45
2022-09-13T23:43:47.438Z,3.24
2022-09-13T23:46:14.503Z,3.14
2022-09-13T23:48:41.446Z,3.56
2022-09-13T23:51:11.354Z,3.34
2022-09-13T23:53:38.572Z,3.40
2022-09-13T23:56:06.659Z,3.49
2022-09-13T23:58:33.630Z,3.77
